sensor_id;sensor_type;location;lat;lon;timestamp;P1;durP1;ratioP1;P2;durP2;ratioP2
55601;SDS011;59921;51.332;12.410;2023-06-22T00:02:08;2.22;;;2.00;;
55601;SDS011;59921;51.332;12.410;2023-06-22T00:04:33;2.05;;;1.75;;
55601;SDS011;59921;51.332;12.410;2023-06-22T00:06:59;2.42;;;2.10;;
55601;SDS011;59921;51.332;12.410;2023-06-22T00:09:24;2.22;;;2.03;;
55601;SDS011;59921;51.332;12.410;2023-06-22T00:11:50;2.22;;;1.90;;
55601;SDS011;59921;51.332;12.410;2023-06-22T00:14:15;2.00;;;1.80;;
55601;SDS011;59921;51.332;12.410;2023-06-22T00:16:41;2.08;;;1.88;;
55601;SDS011;59921;51.332;12.410;2023-06-22T00:19:07;1.80;;;1.70;;
55601;SDS011;59921;51.332;12.410;2023-06-22T00:21:36;2.10;;;1.83;;
55601;SDS011;59921;51.332;12.410;2023-06-22T00:24:03;2.00;;;1.80;;
55601;SDS011;59921;51.332;12.410;2023-06-22T00:26:29;1.92;;;1.73;;
55601;SDS011;59921;51.332;12.410;2023-06-22T00:28:55;2.05;;;1.85;;
55601;SDS011;59921;51.332;12.410;2023-06-22T00:31:20;2.10;;;1.90;;
55601;SDS011;59921;51.332;12.410;2023-06-22T00:33:46;1.80;;;1.70;;
55601;SDS011;59921;51.332;12.410;2023-06-22T00:36:12;2.13;;;1.80;;
55601;SDS011;59921;51.332;12.410;2023-06-22T00:38:41;2.25;;;2.05;;
55601;SDS011;59921;51.332;12.410;2023-06-22T00:41:07;1.80;;;1.70;;
55601;SDS011;59921;51.332;12.410;2023-06-22T00:43:32;1.90;;;1.70;;
55601;SDS011;59921;51.332;12.410;2023-06-22T00:45:58;2.08;;;1.88;;
55601;SDS011;59921;51.332;12.410;2023-06-22T00:48:24;1.98;;;1.77;;
55601;SDS011;59921;51.332;12.410;2023-06-22T00:50:50;2.03;;;1.80;;
55601;SDS011;59921;51.332;12.410;2023-06-22T00:53:18;1.83;;;1.67;;
55601;SDS011;59921;51.332;12.410;2023-06-22T00:55:44;2.08;;;1.88;;
55601;SDS011;59921;51.332;12.410;2023-06-22T00:58:12;1.80;;;1.70;;
55601;SDS011;59921;51.332;12.410;2023-06-22T01:00:41;2.03;;;1.80;;
55601;SDS011;59921;51.332;12.410;2023-06-22T01:03:07;1.98;;;1.77;;
55601;SDS011;59921;51.332;12.410;2023-06-22T01:05:34;2.05;;;1.85;;
55601;SDS011;59921;51.332;12.410;2023-06-22T01:08:04;1.92;;;1.73;;
55601;SDS011;59921;51.332;12.410;2023-06-22T01:10:48;1.83;;;1.73;;
55601;SDS011;59921;51.332;12.410;2023-06-22T01:13:41;1.90;;;1.75;;
55601;SDS011;59921;51.332;12.410;2023-06-22T01:16:29;2.00;;;1.80;;
55601;SDS011;59921;51.332;12.410;2023-06-22T01:18:57;1.95;;;1.77;;
55601;SDS011;59921;51.332;12.410;2023-06-22T01:21:25;1.70;;;1.60;;
55601;SDS011;59921;51.332;12.410;2023-06-22T01:24:07;1.60;;;1.50;;
55601;SDS011;59921;51.332;12.410;2023-06-22T01:26:57;1.80;;;1.70;;
55601;SDS011;59921;51.332;12.410;2023-06-22T01:29:24;1.60;;;1.50;;
55601;SDS011;59921;51.332;12.410;2023-06-22T01:31:52;1.70;;;1.60;;
55601;SDS011;59921;51.332;12.410;2023-06-22T01:34:21;2.08;;;1.83;;
55601;SDS011;59921;51.332;12.410;2023-06-22T01:36:47;1.90;;;1.73;;
55601;SDS011;59921;51.332;12.410;2023-06-22T01:39:12;1.60;;;1.50;;
55601;SDS011;59921;51.332;12.410;2023-06-22T01:41:39;2.00;;;1.80;;
55601;SDS011;59921;51.332;12.410;2023-06-22T01:44:07;1.60;;;1.50;;
55601;SDS011;59921;51.332;12.410;2023-06-22T01:46:34;1.77;;;1.50;;
55601;SDS011;59921;51.332;12.410;2023-06-22T01:49:01;1.70;;;1.58;;
55601;SDS011;59921;51.332;12.410;2023-06-22T01:51:28;1.83;;;1.73;;
55601;SDS011;59921;51.332;12.410;2023-06-22T01:53:53;1.90;;;1.70;;
55601;SDS011;59921;51.332;12.410;2023-06-22T01:56:19;2.20;;;2.00;;
55601;SDS011;59921;51.332;12.410;2023-06-22T01:58:52;2.08;;;1.88;;
55601;SDS011;59921;51.332;12.410;2023-06-22T02:01:26;1.70;;;1.60;;
55601;SDS011;59921;51.332;12.410;2023-06-22T02:03:58;2.15;;;1.95;;
55601;SDS011;59921;51.332;12.410;2023-06-22T02:06:33;1.73;;;1.63;;
55601;SDS011;59921;51.332;12.410;2023-06-22T02:09:03;2.15;;;1.60;;
55601;SDS011;59921;51.332;12.410;2023-06-22T02:11:33;1.65;;;1.55;;
55601;SDS011;59921;51.332;12.410;2023-06-22T02:14:00;1.75;;;1.65;;
55601;SDS011;59921;51.332;12.410;2023-06-22T02:16:26;1.73;;;1.58;;
55601;SDS011;59921;51.332;12.410;2023-06-22T02:18:54;1.63;;;1.50;;
55601;SDS011;59921;51.332;12.410;2023-06-22T02:21:20;1.90;;;1.70;;
55601;SDS011;59921;51.332;12.410;2023-06-22T02:23:46;2.20;;;1.80;;
55601;SDS011;59921;51.332;12.410;2023-06-22T02:26:12;1.92;;;1.73;;
55601;SDS011;59921;51.332;12.410;2023-06-22T02:28:38;1.60;;;1.50;;
55601;SDS011;59921;51.332;12.410;2023-06-22T02:31:04;1.63;;;1.52;;
55601;SDS011;59921;51.332;12.410;2023-06-22T02:33:30;2.00;;;1.80;;
55601;SDS011;59921;51.332;12.410;2023-06-22T02:35:55;1.75;;;1.60;;
55601;SDS011;59921;51.332;12.410;2023-06-22T02:38:21;1.88;;;1.70;;
55601;SDS011;59921;51.332;12.410;2023-06-22T02:40:50;1.75;;;1.65;;
55601;SDS011;59921;51.332;12.410;2023-06-22T02:43:16;1.75;;;1.60;;
55601;SDS011;59921;51.332;12.410;2023-06-22T02:45:41;2.25;;;1.80;;
55601;SDS011;59921;51.332;12.410;2023-06-22T02:48:07;1.92;;;1.75;;
55601;SDS011;59921;51.332;12.410;2023-06-22T02:50:33;2.20;;;2.00;;
55601;SDS011;59921;51.332;12.410;2023-06-22T02:52:58;1.90;;;1.70;;
55601;SDS011;59921;51.332;12.410;2023-06-22T02:55:24;1.60;;;1.50;;
55601;SDS011;59921;51.332;12.410;2023-06-22T02:57:50;1.92;;;1.70;;
55601;SDS011;59921;51.332;12.410;2023-06-22T03:00:18;1.98;;;1.77;;
55601;SDS011;59921;51.332;12.410;2023-06-22T03:02:45;1.80;;;1.70;;
55601;SDS011;59921;51.332;12.410;2023-06-22T03:05:11;1.70;;;1.60;;
55601;SDS011;59921;51.332;12.410;2023-06-22T03:07:42;2.10;;;1.90;;
55601;SDS011;59921;51.332;12.410;2023-06-22T03:10:11;2.10;;;1.90;;
55601;SDS011;59921;51.332;12.410;2023-06-22T03:12:38;1.70;;;1.60;;
55601;SDS011;59921;51.332;12.410;2023-06-22T03:15:07;1.88;;;1.67;;
55601;SDS011;59921;51.332;12.410;2023-06-22T03:17:34;1.65;;;1.55;;
55601;SDS011;59921;51.332;12.410;2023-06-22T03:20:01;1.85;;;1.65;;
55601;SDS011;59921;51.332;12.410;2023-06-22T03:22:36;1.50;;;1.40;;
55601;SDS011;59921;51.332;12.410;2023-06-22T03:25:02;1.92;;;1.73;;
55601;SDS011;59921;51.332;12.410;2023-06-22T03:27:28;1.67;;;1.58;;
55601;SDS011;59921;51.332;12.410;2023-06-22T03:29:54;1.70;;;1.60;;
55601;SDS011;59921;51.332;12.410;2023-06-22T03:32:19;1.80;;;1.60;;
55601;SDS011;59921;51.332;12.410;2023-06-22T03:34:46;2.05;;;1.85;;
55601;SDS011;59921;51.332;12.410;2023-06-22T03:37:13;1.80;;;1.70;;
55601;SDS011;59921;51.332;12.410;2023-06-22T03:39:40;1.95;;;1.75;;
55601;SDS011;59921;51.332;12.410;2023-06-22T03:42:06;1.77;;;1.67;;
55601;SDS011;59921;51.332;12.410;2023-06-22T03:44:31;1.92;;;1.70;;
55601;SDS011;59921;51.332;12.410;2023-06-22T03:46:57;1.65;;;1.55;;
55601;SDS011;59921;51.332;12.410;2023-06-22T03:49:22;2.00;;;1.80;;
55601;SDS011;59921;51.332;12.410;2023-06-22T03:51:48;1.95;;;1.70;;
55601;SDS011;59921;51.332;12.410;2023-06-22T03:54:14;1.70;;;1.60;;
55601;SDS011;59921;51.332;12.410;2023-06-22T03:56:39;2.10;;;1.90;;
55601;SDS011;59921;51.332;12.410;2023-06-22T03:59:05;2.08;;;1.88;;
55601;SDS011;59921;51.332;12.410;2023-06-22T04:01:30;1.90;;;1.70;;
55601;SDS011;59921;51.332;12.410;2023-06-22T04:03:56;1.77;;;1.67;;
55601;SDS011;59921;51.332;12.410;2023-06-22T04:06:21;1.80;;;1.70;;
55601;SDS011;59921;51.332;12.410;2023-06-22T04:08:47;2.00;;;1.63;;
55601;SDS011;59921;51.332;12.410;2023-06-22T04:11:16;1.63;;;1.50;;
55601;SDS011;59921;51.332;12.410;2023-06-22T04:13:43;2.05;;;1.85;;
55601;SDS011;59921;51.332;12.410;2023-06-22T04:16:09;1.77;;;1.55;;
55601;SDS011;59921;51.332;12.410;2023-06-22T04:18:35;1.90;;;1.70;;
55601;SDS011;59921;51.332;12.410;2023-06-22T04:21:01;2.08;;;1.88;;
55601;SDS011;59921;51.332;12.410;2023-06-22T04:23:27;1.73;;;1.63;;
55601;SDS011;59921;51.332;12.410;2023-06-22T04:25:53;1.88;;;1.70;;
55601;SDS011;59921;51.332;12.410;2023-06-22T04:28:18;1.80;;;1.70;;
55601;SDS011;59921;51.332;12.410;2023-06-22T04:30:44;1.50;;;1.40;;
55601;SDS011;59921;51.332;12.410;2023-06-22T04:33:15;2.10;;;1.70;;
55601;SDS011;59921;51.332;12.410;2023-06-22T04:35:41;2.10;;;1.90;;
55601;SDS011;59921;51.332;12.410;2023-06-22T04:38:07;1.70;;;1.60;;
55601;SDS011;59921;51.332;12.410;2023-06-22T04:40:33;1.77;;;1.67;;
55601;SDS011;59921;51.332;12.410;2023-06-22T04:42:59;1.55;;;1.45;;
55601;SDS011;59921;51.332;12.410;2023-06-22T04:45:27;1.75;;;1.50;;
55601;SDS011;59921;51.332;12.410;2023-06-22T04:47:54;1.98;;;1.70;;
55601;SDS011;59921;51.332;12.410;2023-06-22T04:50:20;2.00;;;1.80;;
55601;SDS011;59921;51.332;12.410;2023-06-22T04:52:47;1.70;;;1.60;;
55601;SDS011;59921;51.332;12.410;2023-06-22T04:55:13;1.70;;;1.60;;
55601;SDS011;59921;51.332;12.410;2023-06-22T04:57:50;1.70;;;1.60;;
55601;SDS011;59921;51.332;12.410;2023-06-22T05:00:19;1.63;;;1.52;;
55601;SDS011;59921;51.332;12.410;2023-06-22T05:02:48;1.52;;;1.42;;
55601;SDS011;59921;51.332;12.410;2023-06-22T05:05:14;1.60;;;1.50;;
55601;SDS011;59921;51.332;12.410;2023-06-22T05:07:44;1.60;;;1.50;;
55601;SDS011;59921;51.332;12.410;2023-06-22T05:10:13;1.60;;;1.50;;
55601;SDS011;59921;51.332;12.410;2023-06-22T05:12:39;1.90;;;1.67;;
55601;SDS011;59921;51.332;12.410;2023-06-22T05:15:06;1.98;;;1.80;;
55601;SDS011;59921;51.332;12.410;2023-06-22T05:17:33;1.70;;;1.60;;
55601;SDS011;59921;51.332;12.410;2023-06-22T05:19:59;1.90;;;1.70;;
55601;SDS011;59921;51.332;12.410;2023-06-22T05:22:25;1.83;;;1.60;;
55601;SDS011;59921;51.332;12.410;2023-06-22T05:24:50;1.70;;;1.40;;
55601;SDS011;59921;51.332;12.410;2023-06-22T05:27:16;1.60;;;1.50;;
55601;SDS011;59921;51.332;12.410;2023-06-22T05:29:41;1.50;;;1.40;;
55601;SDS011;59921;51.332;12.410;2023-06-22T05:32:07;1.50;;;1.40;;
55601;SDS011;59921;51.332;12.410;2023-06-22T05:34:33;1.60;;;1.50;;
55601;SDS011;59921;51.332;12.410;2023-06-22T05:36:59;1.75;;;1.60;;
55601;SDS011;59921;51.332;12.410;2023-06-22T05:39:24;1.60;;;1.50;;
55601;SDS011;59921;51.332;12.410;2023-06-22T05:41:50;1.48;;;1.38;;
55601;SDS011;59921;51.332;12.410;2023-06-22T05:44:16;1.50;;;1.40;;
55601;SDS011;59921;51.332;12.410;2023-06-22T05:46:42;1.75;;;1.65;;
55601;SDS011;59921;51.332;12.410;2023-06-22T05:49:10;1.50;;;1.40;;
55601;SDS011;59921;51.332;12.410;2023-06-22T05:51:36;1.50;;;1.40;;
55601;SDS011;59921;51.332;12.410;2023-06-22T05:54:02;1.95;;;1.85;;
55601;SDS011;59921;51.332;12.410;2023-06-22T05:56:28;1.60;;;1.50;;
55601;SDS011;59921;51.332;12.410;2023-06-22T05:58:53;2.47;;;1.52;;
55601;SDS011;59921;51.332;12.410;2023-06-22T06:01:18;1.70;;;1.60;;
55601;SDS011;59921;51.332;12.410;2023-06-22T06:03:44;1.60;;;1.50;;
55601;SDS011;59921;51.332;12.410;2023-06-22T06:06:09;2.10;;;1.67;;
55601;SDS011;59921;51.332;12.410;2023-06-22T06:08:36;2.53;;;1.73;;
55601;SDS011;59921;51.332;12.410;2023-06-22T06:11:05;1.50;;;1.40;;
55601;SDS011;59921;51.332;12.410;2023-06-22T06:13:30;1.63;;;1.52;;
55601;SDS011;59921;51.332;12.410;2023-06-22T06:15:56;1.45;;;1.33;;
55601;SDS011;59921;51.332;12.410;2023-06-22T06:18:22;1.88;;;1.60;;
55601;SDS011;59921;51.332;12.410;2023-06-22T06:20:48;1.67;;;1.45;;
55601;SDS011;59921;51.332;12.410;2023-06-22T06:23:14;1.45;;;1.35;;
55601;SDS011;59921;51.332;12.410;2023-06-22T06:25:39;1.80;;;1.60;;
55601;SDS011;59921;51.332;12.410;2023-06-22T06:28:05;2.00;;;1.60;;
55601;SDS011;59921;51.332;12.410;2023-06-22T06:30:30;1.67;;;1.50;;
55601;SDS011;59921;51.332;12.410;2023-06-22T06:32:56;1.58;;;1.40;;
55601;SDS011;59921;51.332;12.410;2023-06-22T06:35:22;1.70;;;1.50;;
55601;SDS011;59921;51.332;12.410;2023-06-22T06:37:48;2.13;;;1.65;;
55601;SDS011;59921;51.332;12.410;2023-06-22T06:40:15;1.65;;;1.55;;
55601;SDS011;59921;51.332;12.410;2023-06-22T06:42:43;1.92;;;1.40;;
55601;SDS011;59921;51.332;12.410;2023-06-22T06:45:10;2.42;;;1.60;;
55601;SDS011;59921;51.332;12.410;2023-06-22T06:47:38;1.75;;;1.65;;
55601;SDS011;59921;51.332;12.410;2023-06-22T06:50:04;1.65;;;1.55;;
55601;SDS011;59921;51.332;12.410;2023-06-22T06:52:30;2.25;;;1.48;;
55601;SDS011;59921;51.332;12.410;2023-06-22T06:54:56;1.52;;;1.30;;
55601;SDS011;59921;51.332;12.410;2023-06-22T06:57:21;1.90;;;1.70;;
55601;SDS011;59921;51.332;12.410;2023-06-22T06:59:48;1.60;;;1.50;;
55601;SDS011;59921;51.332;12.410;2023-06-22T07:02:14;1.60;;;1.40;;
55601;SDS011;59921;51.332;12.410;2023-06-22T07:04:40;1.70;;;1.60;;
55601;SDS011;59921;51.332;12.410;2023-06-22T07:07:06;1.70;;;1.60;;
55601;SDS011;59921;51.332;12.410;2023-06-22T07:09:31;1.55;;;1.40;;
55601;SDS011;59921;51.332;12.410;2023-06-22T07:11:57;1.48;;;1.38;;
55601;SDS011;59921;51.332;12.410;2023-06-22T07:14:22;1.77;;;1.67;;
55601;SDS011;59921;51.332;12.410;2023-06-22T07:16:49;1.50;;;1.40;;
55601;SDS011;59921;51.332;12.410;2023-06-22T07:19:14;2.15;;;1.98;;
55601;SDS011;59921;51.332;12.410;2023-06-22T07:21:40;1.77;;;1.50;;
55601;SDS011;59921;51.332;12.410;2023-06-22T07:24:06;1.60;;;1.50;;
55601;SDS011;59921;51.332;12.410;2023-06-22T07:26:32;1.58;;;1.45;;
55601;SDS011;59921;51.332;12.410;2023-06-22T07:28:58;1.75;;;1.60;;
55601;SDS011;59921;51.332;12.410;2023-06-22T07:31:24;1.83;;;1.58;;
55601;SDS011;59921;51.332;12.410;2023-06-22T07:33:50;1.33;;;1.23;;
55601;SDS011;59921;51.332;12.410;2023-06-22T07:36:16;1.60;;;1.45;;
55601;SDS011;59921;51.332;12.410;2023-06-22T07:38:42;1.55;;;1.45;;
55601;SDS011;59921;51.332;12.410;2023-06-22T07:41:08;1.42;;;1.33;;
55601;SDS011;59921;51.332;12.410;2023-06-22T07:43:33;1.50;;;1.40;;
55601;SDS011;59921;51.332;12.410;2023-06-22T07:46:04;1.35;;;1.25;;
55601;SDS011;59921;51.332;12.410;2023-06-22T07:48:30;1.50;;;1.40;;
55601;SDS011;59921;51.332;12.410;2023-06-22T07:50:55;1.38;;;1.27;;
55601;SDS011;59921;51.332;12.410;2023-06-22T07:53:21;1.40;;;1.20;;
55601;SDS011;59921;51.332;12.410;2023-06-22T07:55:48;1.60;;;1.42;;
55601;SDS011;59921;51.332;12.410;2023-06-22T07:58:14;1.52;;;1.42;;
55601;SDS011;59921;51.332;12.410;2023-06-22T08:00:40;1.60;;;1.50;;
55601;SDS011;59921;51.332;12.410;2023-06-22T08:03:09;1.40;;;1.30;;
55601;SDS011;59921;51.332;12.410;2023-06-22T08:05:35;1.30;;;1.20;;
55601;SDS011;59921;51.332;12.410;2023-06-22T08:08:00;1.80;;;1.38;;
55601;SDS011;59921;51.332;12.410;2023-06-22T08:10:26;1.50;;;1.23;;
55601;SDS011;59921;51.332;12.410;2023-06-22T08:12:51;1.60;;;1.48;;
55601;SDS011;59921;51.332;12.410;2023-06-22T08:15:17;1.23;;;1.13;;
55601;SDS011;59921;51.332;12.410;2023-06-22T08:17:44;1.50;;;1.20;;
55601;SDS011;59921;51.332;12.410;2023-06-22T08:20:11;1.30;;;1.20;;
55601;SDS011;59921;51.332;12.410;2023-06-22T08:22:37;1.38;;;1.27;;
55601;SDS011;59921;51.332;12.410;2023-06-22T08:25:03;1.35;;;1.25;;
55601;SDS011;59921;51.332;12.410;2023-06-22T08:27:30;1.52;;;1.42;;
55601;SDS011;59921;51.332;12.410;2023-06-22T08:29:59;1.58;;;1.25;;
55601;SDS011;59921;51.332;12.410;2023-06-22T08:32:28;1.50;;;1.40;;
55601;SDS011;59921;51.332;12.410;2023-06-22T08:34:54;1.25;;;1.15;;
55601;SDS011;59921;51.332;12.410;2023-06-22T08:37:20;1.70;;;1.60;;
55601;SDS011;59921;51.332;12.410;2023-06-22T08:39:48;1.67;;;1.50;;
55601;SDS011;59921;51.332;12.410;2023-06-22T08:42:15;1.70;;;1.50;;
55601;SDS011;59921;51.332;12.410;2023-06-22T08:44:41;1.45;;;1.33;;
55601;SDS011;59921;51.332;12.410;2023-06-22T08:47:06;1.45;;;1.35;;
55601;SDS011;59921;51.332;12.410;2023-06-22T08:49:32;1.40;;;1.30;;
55601;SDS011;59921;51.332;12.410;2023-06-22T08:51:57;1.63;;;1.50;;
55601;SDS011;59921;51.332;12.410;2023-06-22T08:54:23;1.52;;;1.35;;
55601;SDS011;59921;51.332;12.410;2023-06-22T08:56:48;1.50;;;1.30;;
55601;SDS011;59921;51.332;12.410;2023-06-22T08:59:14;1.40;;;1.30;;
55601;SDS011;59921;51.332;12.410;2023-06-22T09:01:39;1.50;;;1.40;;
55601;SDS011;59921;51.332;12.410;2023-06-22T09:04:05;1.60;;;1.50;;
55601;SDS011;59921;51.332;12.410;2023-06-22T09:06:32;1.50;;;1.40;;
55601;SDS011;59921;51.332;12.410;2023-06-22T09:08:58;1.60;;;1.40;;
55601;SDS011;59921;51.332;12.410;2023-06-22T09:11:26;1.58;;;1.45;;
55601;SDS011;59921;51.332;12.410;2023-06-22T09:13:52;1.40;;;1.30;;
55601;SDS011;59921;51.332;12.410;2023-06-22T09:16:18;1.48;;;1.33;;
55601;SDS011;59921;51.332;12.410;2023-06-22T09:18:47;1.40;;;1.30;;
55601;SDS011;59921;51.332;12.410;2023-06-22T09:21:13;1.85;;;1.50;;
55601;SDS011;59921;51.332;12.410;2023-06-22T09:23:39;1.63;;;1.50;;
55601;SDS011;59921;51.332;12.410;2023-06-22T09:26:04;1.95;;;1.40;;
55601;SDS011;59921;51.332;12.410;2023-06-22T09:28:30;1.40;;;1.30;;
55601;SDS011;59921;51.332;12.410;2023-06-22T09:30:56;1.50;;;1.33;;
55601;SDS011;59921;51.332;12.410;2023-06-22T09:33:25;1.88;;;1.50;;
55601;SDS011;59921;51.332;12.410;2023-06-22T09:35:51;1.45;;;1.35;;
55601;SDS011;59921;51.332;12.410;2023-06-22T09:38:17;1.60;;;1.50;;
55601;SDS011;59921;51.332;12.410;2023-06-22T09:40:42;1.50;;;1.40;;
55601;SDS011;59921;51.332;12.410;2023-06-22T09:43:08;1.75;;;1.50;;
55601;SDS011;59921;51.332;12.410;2023-06-22T09:45:34;1.40;;;1.30;;
55601;SDS011;59921;51.332;12.410;2023-06-22T09:47:59;1.75;;;1.50;;
55601;SDS011;59921;51.332;12.410;2023-06-22T09:50:25;1.60;;;1.50;;
55601;SDS011;59921;51.332;12.410;2023-06-22T09:52:50;1.98;;;1.40;;
55601;SDS011;59921;51.332;12.410;2023-06-22T09:55:20;1.42;;;1.33;;
55601;SDS011;59921;51.332;12.410;2023-06-22T09:57:46;1.85;;;1.52;;
55601;SDS011;59921;51.332;12.410;2023-06-22T10:00:11;1.58;;;1.48;;
55601;SDS011;59921;51.332;12.410;2023-06-22T10:02:38;1.80;;;1.50;;
55601;SDS011;59921;51.332;12.410;2023-06-22T10:05:05;1.55;;;1.45;;
55601;SDS011;59921;51.332;12.410;2023-06-22T10:07:30;1.50;;;1.40;;
55601;SDS011;59921;51.332;12.410;2023-06-22T10:09:56;1.77;;;1.60;;
55601;SDS011;59921;51.332;12.410;2023-06-22T10:12:21;1.63;;;1.38;;
55601;SDS011;59921;51.332;12.410;2023-06-22T10:14:47;1.42;;;1.33;;
55601;SDS011;59921;51.332;12.410;2023-06-22T10:17:12;1.63;;;1.52;;
55601;SDS011;59921;51.332;12.410;2023-06-22T10:19:38;1.70;;;1.60;;
55601;SDS011;59921;51.332;12.410;2023-06-22T10:22:04;1.85;;;1.67;;
55601;SDS011;59921;51.332;12.410;2023-06-22T10:24:30;1.77;;;1.63;;
55601;SDS011;59921;51.332;12.410;2023-06-22T10:26:55;1.63;;;1.52;;
55601;SDS011;59921;51.332;12.410;2023-06-22T10:29:21;1.73;;;1.63;;
55601;SDS011;59921;51.332;12.410;2023-06-22T10:31:46;1.70;;;1.60;;
55601;SDS011;59921;51.332;12.410;2023-06-22T10:34:12;1.60;;;1.50;;
55601;SDS011;59921;51.332;12.410;2023-06-22T10:36:38;2.08;;;1.50;;
55601;SDS011;59921;51.332;12.410;2023-06-22T10:39:04;1.50;;;1.35;;
55601;SDS011;59921;51.332;12.410;2023-06-22T10:41:29;2.10;;;1.90;;
55601;SDS011;59921;51.332;12.410;2023-06-22T10:43:55;1.73;;;1.60;;
55601;SDS011;59921;51.332;12.410;2023-06-22T10:46:21;1.63;;;1.48;;
55601;SDS011;59921;51.332;12.410;2023-06-22T10:48:49;1.73;;;1.60;;
55601;SDS011;59921;51.332;12.410;2023-06-22T10:51:15;1.48;;;1.38;;
55601;SDS011;59921;51.332;12.410;2023-06-22T10:53:40;1.75;;;1.65;;
55601;SDS011;59921;51.332;12.410;2023-06-22T10:56:06;1.70;;;1.60;;
55601;SDS011;59921;51.332;12.410;2023-06-22T10:58:31;1.90;;;1.52;;
55601;SDS011;59921;51.332;12.410;2023-06-22T11:00:57;2.33;;;1.60;;
55601;SDS011;59921;51.332;12.410;2023-06-22T11:03:24;1.80;;;1.58;;
55601;SDS011;59921;51.332;12.410;2023-06-22T11:05:49;2.00;;;1.80;;
55601;SDS011;59921;51.332;12.410;2023-06-22T11:08:15;1.83;;;1.55;;
55601;SDS011;59921;51.332;12.410;2023-06-22T11:10:40;2.08;;;1.75;;
55601;SDS011;59921;51.332;12.410;2023-06-22T11:13:06;1.77;;;1.60;;
55601;SDS011;59921;51.332;12.410;2023-06-22T11:15:35;2.80;;;1.73;;
55601;SDS011;59921;51.332;12.410;2023-06-22T11:18:01;1.98;;;1.75;;
55601;SDS011;59921;51.332;12.410;2023-06-22T11:20:30;1.88;;;1.67;;
55601;SDS011;59921;51.332;12.410;2023-06-22T11:22:56;1.80;;;1.70;;
55601;SDS011;59921;51.332;12.410;2023-06-22T11:25:21;1.60;;;1.50;;
55601;SDS011;59921;51.332;12.410;2023-06-22T11:27:47;1.73;;;1.60;;
55601;SDS011;59921;51.332;12.410;2023-06-22T11:30:12;1.85;;;1.70;;
55601;SDS011;59921;51.332;12.410;2023-06-22T11:32:38;1.92;;;1.73;;
55601;SDS011;59921;51.332;12.410;2023-06-22T11:35:04;1.83;;;1.70;;
55601;SDS011;59921;51.332;12.410;2023-06-22T11:37:29;1.70;;;1.60;;
55601;SDS011;59921;51.332;12.410;2023-06-22T11:39:55;1.80;;;1.65;;
55601;SDS011;59921;51.332;12.410;2023-06-22T11:42:20;1.92;;;1.73;;
55601;SDS011;59921;51.332;12.410;2023-06-22T11:44:48;1.52;;;1.42;;
55601;SDS011;59921;51.332;12.410;2023-06-22T11:47:14;2.05;;;1.85;;
55601;SDS011;59921;51.332;12.410;2023-06-22T11:49:40;2.13;;;1.83;;
55601;SDS011;59921;51.332;12.410;2023-06-22T11:52:06;1.90;;;1.70;;
55601;SDS011;59921;51.332;12.410;2023-06-22T11:54:32;2.15;;;1.80;;
55601;SDS011;59921;51.332;12.410;2023-06-22T11:56:57;2.03;;;1.70;;
55601;SDS011;59921;51.332;12.410;2023-06-22T11:59:22;1.92;;;1.73;;
55601;SDS011;59921;51.332;12.410;2023-06-22T12:01:48;1.88;;;1.73;;
55601;SDS011;59921;51.332;12.410;2023-06-22T12:04:15;2.10;;;1.90;;
55601;SDS011;59921;51.332;12.410;2023-06-22T12:06:41;2.10;;;1.90;;
55601;SDS011;59921;51.332;12.410;2023-06-22T12:09:08;2.00;;;1.80;;
55601;SDS011;59921;51.332;12.410;2023-06-22T12:11:33;2.10;;;1.92;;
55601;SDS011;59921;51.332;12.410;2023-06-22T12:13:59;2.20;;;1.85;;
55601;SDS011;59921;51.332;12.410;2023-06-22T12:16:27;2.13;;;1.90;;
55601;SDS011;59921;51.332;12.410;2023-06-22T12:18:55;2.20;;;1.92;;
55601;SDS011;59921;51.332;12.410;2023-06-22T12:21:21;2.08;;;1.80;;
55601;SDS011;59921;51.332;12.410;2023-06-22T12:23:47;2.08;;;1.88;;
55601;SDS011;59921;51.332;12.410;2023-06-22T12:26:12;2.08;;;1.88;;
55601;SDS011;59921;51.332;12.410;2023-06-22T12:28:38;1.80;;;1.70;;
55601;SDS011;59921;51.332;12.410;2023-06-22T12:31:03;2.20;;;1.85;;
55601;SDS011;59921;51.332;12.410;2023-06-22T12:33:29;2.00;;;1.90;;
55601;SDS011;59921;51.332;12.410;2023-06-22T12:35:55;1.90;;;1.70;;
55601;SDS011;59921;51.332;12.410;2023-06-22T12:38:22;2.17;;;1.80;;
55601;SDS011;59921;51.332;12.410;2023-06-22T12:40:49;2.55;;;1.83;;
55601;SDS011;59921;51.332;12.410;2023-06-22T12:43:15;2.20;;;2.00;;
55601;SDS011;59921;51.332;12.410;2023-06-22T12:45:43;2.10;;;1.90;;
55601;SDS011;59921;51.332;12.410;2023-06-22T12:48:09;2.20;;;2.00;;
55601;SDS011;59921;51.332;12.410;2023-06-22T12:50:35;2.08;;;1.88;;
55601;SDS011;59921;51.332;12.410;2023-06-22T12:53:01;2.10;;;1.90;;
55601;SDS011;59921;51.332;12.410;2023-06-22T12:55:28;2.10;;;1.90;;
55601;SDS011;59921;51.332;12.410;2023-06-22T12:57:53;2.60;;;1.90;;
55601;SDS011;59921;51.332;12.410;2023-06-22T13:00:19;2.30;;;2.10;;
55601;SDS011;59921;51.332;12.410;2023-06-22T13:02:45;2.58;;;1.73;;
55601;SDS011;59921;51.332;12.410;2023-06-22T13:05:10;2.08;;;1.88;;
55601;SDS011;59921;51.332;12.410;2023-06-22T13:07:36;2.30;;;2.00;;
55601;SDS011;59921;51.332;12.410;2023-06-22T13:10:02;2.25;;;1.90;;
55601;SDS011;59921;51.332;12.410;2023-06-22T13:12:28;2.20;;;2.00;;
55601;SDS011;59921;51.332;12.410;2023-06-22T13:14:54;2.55;;;2.10;;
55601;SDS011;59921;51.332;12.410;2023-06-22T13:17:20;2.28;;;2.08;;
55601;SDS011;59921;51.332;12.410;2023-06-22T13:19:46;2.22;;;2.03;;
55601;SDS011;59921;51.332;12.410;2023-06-22T13:22:28;2.20;;;2.00;;
55601;SDS011;59921;51.332;12.410;2023-06-22T13:24:55;2.20;;;2.00;;
55601;SDS011;59921;51.332;12.410;2023-06-22T13:27:21;2.40;;;2.20;;
55601;SDS011;59921;51.332;12.410;2023-06-22T13:29:46;2.30;;;2.10;;
55601;SDS011;59921;51.332;12.410;2023-06-22T13:32:12;2.20;;;2.00;;
55601;SDS011;59921;51.332;12.410;2023-06-22T13:34:38;2.10;;;1.90;;
55601;SDS011;59921;51.332;12.410;2023-06-22T13:37:03;2.05;;;1.85;;
55601;SDS011;59921;51.332;12.410;2023-06-22T13:39:29;2.35;;;2.10;;
55601;SDS011;59921;51.332;12.410;2023-06-22T13:41:55;3.08;;;2.17;;
55601;SDS011;59921;51.332;12.410;2023-06-22T13:44:21;2.50;;;2.10;;
55601;SDS011;59921;51.332;12.410;2023-06-22T13:46:47;2.67;;;2.20;;
55601;SDS011;59921;51.332;12.410;2023-06-22T13:49:13;2.50;;;2.17;;
55601;SDS011;59921;51.332;12.410;2023-06-22T13:51:38;2.30;;;2.10;;
55601;SDS011;59921;51.332;12.410;2023-06-22T13:54:04;2.17;;;1.77;;
55601;SDS011;59921;51.332;12.410;2023-06-22T13:56:29;2.35;;;2.15;;
55601;SDS011;59921;51.332;12.410;2023-06-22T13:58:55;2.80;;;2.30;;
55601;SDS011;59921;51.332;12.410;2023-06-22T14:01:20;2.65;;;2.42;;
55601;SDS011;59921;51.332;12.410;2023-06-22T14:03:47;2.35;;;2.15;;
55601;SDS011;59921;51.332;12.410;2023-06-22T14:06:13;2.45;;;2.20;;
55601;SDS011;59921;51.332;12.410;2023-06-22T14:08:38;2.63;;;2.42;;
55601;SDS011;59921;51.332;12.410;2023-06-22T14:11:04;2.78;;;2.38;;
55601;SDS011;59921;51.332;12.410;2023-06-22T14:13:30;2.55;;;2.30;;
55601;SDS011;59921;51.332;12.410;2023-06-22T14:15:55;2.38;;;2.17;;
55601;SDS011;59921;51.332;12.410;2023-06-22T14:18:21;2.80;;;2.50;;
55601;SDS011;59921;51.332;12.410;2023-06-22T14:20:49;2.40;;;2.20;;
55601;SDS011;59921;51.332;12.410;2023-06-22T14:23:15;4.22;;;2.22;;
55601;SDS011;59921;51.332;12.410;2023-06-22T14:25:40;2.58;;;2.17;;
55601;SDS011;59921;51.332;12.410;2023-06-22T14:28:06;2.70;;;2.08;;
55601;SDS011;59921;51.332;12.410;2023-06-22T14:30:32;2.85;;;2.40;;